Time;durP1;ratioP1;P1;durP2;ratioP2;P2;SDS_P1;SDS_P2;PMS_P1;PMS_P2;Temp;Humidity;BMP_temperature;BMP_pressure;BME280_temperature;BME280_humidity;BME280_pressure;Samples;Min_cycle;Max_cycle;Signal;HPM_P1;HPM_P2
2021/08/17 00:01:57;;;;;;;9.75;5.63;;;742.80;1177.60;;;;;;5108722;27;20080;-79
2021/08/17 00:04:22;;;;;;;8.55;5.68;;;742.80;1177.60;;;;;;5126216;27;20011;-78
2021/08/17 00:06:48;;;;;;;11.57;6.07;;;742.80;1203.20;;;;;;5115323;27;20054;-79
2021/08/17 00:09:15;;;;;;;17.50;5.55;;;742.80;1203.20;;;;;;5129883;27;20166;-80
2021/08/17 00:11:41;;;;;;;11.77;5.72;;;742.80;1203.20;;;;;;5109577;27;20022;-79
2021/08/17 00:14:07;;;;;;;9.18;5.45;;;742.80;1177.60;;;;;;5128557;27;20011;-79
2021/08/17 00:16:32;;;;;;;11.48;4.97;;;742.70;1203.20;;;;;;5115353;27;20479;-83
2021/08/17 00:18:58;;;;;;;12.30;5.90;;;742.70;1203.20;;;;;;5125795;27;20011;-80
2021/08/17 00:21:24;;;;;;;9.68;5.50;;;742.70;1203.20;;;;;;5123183;27;20058;-82
2021/08/17 00:23:50;;;;;;;12.10;5.90;;;742.60;1203.20;;;;;;5115739;27;20391;-81
2021/08/17 00:26:16;;;;;;;8.23;5.53;;;742.60;1203.20;;;;;;5129402;27;20054;-80
2021/08/17 00:28:41;;;;;;;8.70;5.32;;;742.60;1203.20;;;;;;5107692;28;20502;-79
2021/08/17 00:31:07;;;;;;;11.15;5.78;;;742.60;1203.20;;;;;;5125198;27;20070;-78
2021/08/17 00:33:33;;;;;;;11.27;5.70;;;742.60;1203.20;;;;;;5127838;27;20016;-80
2021/08/17 00:36:02;;;;;;;8.25;5.50;;;742.70;1203.20;;;;;;5124230;28;20472;-80
2021/08/17 00:38:28;;;;;;;9.35;5.57;;;742.60;1203.20;;;;;;5128394;28;20030;-80
2021/08/17 00:40:54;;;;;;;10.60;5.97;;;742.60;1203.20;;;;;;5128547;28;20422;-80
2021/08/17 00:43:20;;;;;;;8.07;5.38;;;742.50;1203.20;;;;;;5115008;28;20482;-79
2021/08/17 00:45:46;;;;;;;8.25;5.40;;;742.40;1228.80;;;;;;5128263;28;20121;-79
2021/08/17 00:48:12;;;;;;;10.45;5.95;;;742.40;1228.80;;;;;;5114564;28;20058;-79
2021/08/17 00:50:38;;;;;;;8.35;5.07;;;742.40;1228.80;;;;;;5112363;28;20445;-79
2021/08/17 00:53:05;;;;;;;7.47;5.43;;;742.40;1228.80;;;;;;5127344;28;20016;-77
2021/08/17 00:55:34;;;;;;;9.43;5.90;;;717.70;1203.20;;;;;;5126302;28;20053;-83
2021/08/17 00:58:00;;;;;;;9.98;4.97;;;717.70;1203.20;;;;;;5115714;28;20491;-84
2021/08/17 01:00:27;;;;;;;8.77;4.88;;;717.70;1203.20;;;;;;5115312;28;20020;-79
2021/08/17 01:02:53;;;;;;;14.07;5.55;;;717.70;1203.20;;;;;;5117717;28;20020;-80
2021/08/17 01:05:27;;;;;;;12.88;5.72;;;717.70;1203.20;;;;;;5114538;28;20043;-80
2021/08/17 01:07:53;;;;;;;8.90;4.95;;;717.60;1203.20;;;;;;5111739;28;20023;-79
2021/08/17 01:10:19;;;;;;;8.05;5.18;;;717.70;1203.20;;;;;;5128796;28;20026;-78
2021/08/17 01:12:45;;;;;;;7.43;4.93;;;717.70;1203.20;;;;;;5105961;28;20031;-76
2021/08/17 01:15:14;;;;;;;7.28;4.97;;;717.70;1203.20;;;;;;5127774;28;20173;-77
2021/08/17 01:17:44;;;;;;;7.85;6.18;;;717.60;1228.80;;;;;;5132674;28;20094;-81
2021/08/17 01:20:15;;;;;;;8.52;5.65;;;717.60;1203.20;;;;;;5132692;28;20511;-75
2021/08/17 01:22:43;;;;;;;11.30;5.88;;;717.50;1228.80;;;;;;5132928;28;20022;-79
2021/08/17 01:25:11;;;;;;;9.40;5.93;;;717.50;1228.80;;;;;;5108137;28;20031;-79
2021/08/17 01:27:40;;;;;;;7.97;5.25;;;717.50;1228.80;;;;;;5121959;28;20028;-79
2021/08/17 01:30:08;;;;;;;7.80;5.60;;;717.40;1228.80;;;;;;5122186;28;20090;-80
2021/08/17 01:32:34;;;;;;;8.80;5.45;;;717.30;1254.40;;;;;;5122703;27;20443;-79
2021/08/17 01:35:00;;;;;;;10.10;5.50;;;717.30;1254.40;;;;;;5126741;27;20050;-79
2021/08/17 01:37:25;;;;;;;14.73;6.80;;;717.20;1254.40;;;;;;5127148;27;20412;-79
2021/08/17 01:39:59;;;;;;;9.57;5.47;;;717.20;1254.40;;;;;;5125397;27;20019;-80
2021/08/17 01:42:26;;;;;;;10.50;5.95;;;717.00;1280.00;;;;;;5107315;27;20106;-79
2021/08/17 01:44:52;;;;;;;9.82;5.93;;;717.00;1280.00;;;;;;5127215;27;20064;-79
2021/08/17 01:47:17;;;;;;;10.18;6.10;;;716.90;1280.00;;;;;;5125958;27;20019;-79
2021/08/17 01:49:43;;;;;;;10.55;6.03;;;716.80;1305.60;;;;;;5125336;27;20107;-80
2021/08/17 01:52:09;;;;;;;10.45;5.90;;;716.80;1305.60;;;;;;5106541;27;20055;-78
2021/08/17 01:54:34;;;;;;;7.95;5.80;;;692.10;1305.60;;;;;;5126984;27;20410;-78
2021/08/17 01:57:00;;;;;;;9.85;6.60;;;692.10;1305.60;;;;;;5123340;27;20024;-80
2021/08/17 01:59:27;;;;;;;9.02;5.63;;;691.90;1331.20;;;;;;5125397;27;20025;-79
2021/08/17 02:01:53;;;;;;;10.63;6.35;;;692.10;1305.60;;;;;;5127128;27;20019;-79
2021/08/17 02:04:19;;;;;;;8.60;5.55;;;691.90;1331.20;;;;;;5106760;27;20023;-79
2021/08/17 02:06:45;;;;;;;16.10;6.35;;;691.90;1331.20;;;;;;5125408;27;20027;-77
2021/08/17 02:09:10;;;;;;;13.07;6.47;;;691.90;1331.20;;;;;;5126987;27;20380;-78
2021/08/17 02:11:36;;;;;;;17.45;5.88;;;691.80;1331.20;;;;;;5106362;27;20059;-80
2021/08/17 02:14:03;;;;;;;13.52;6.43;;;691.80;1331.20;;;;;;5126005;27;20090;-79
2021/08/17 02:16:29;;;;;;;11.77;6.22;;;691.80;1356.80;;;;;;5104770;27;20031;-78
2021/08/17 02:18:54;;;;;;;15.15;6.82;;;691.70;1356.80;;;;;;5126744;27;20419;-80
2021/08/17 02:21:20;;;;;;;9.40;6.03;;;691.70;1356.80;;;;;;5125525;27;20027;-78
2021/08/17 02:23:46;;;;;;;11.25;6.90;;;691.60;1356.80;;;;;;5106730;27;20030;-77
2021/08/17 02:26:11;;;;;;;9.48;6.80;;;691.60;1356.80;;;;;;5111341;28;20117;-79
2021/08/17 02:28:37;;;;;;;10.10;6.95;;;691.70;1331.20;;;;;;5109528;28;20020;-79
2021/08/17 02:31:04;;;;;;;10.55;6.82;;;691.80;1331.20;;;;;;5111005;28;20446;-78
2021/08/17 02:33:30;;;;;;;13.65;7.05;;;691.80;1331.20;;;;;;5096921;28;20118;-78
2021/08/17 02:35:56;;;;;;;15.15;7.15;;;692.10;1356.80;;;;;;5108068;28;20099;-80
2021/08/17 02:38:21;;;;;;;10.25;6.55;;;691.50;1408.00;;;;;;5091113;28;20024;-78
2021/08/17 02:40:47;;;;;;;13.15;6.95;;;691.40;1408.00;;;;;;5096888;28;20051;-79
2021/08/17 02:43:13;;;;;;;12.48;6.63;;;691.50;1382.40;;;;;;5096162;28;20092;-80
2021/08/17 02:45:39;;;;;;;13.82;7.15;;;691.70;1382.40;;;;;;5113787;28;20055;-80
2021/08/17 02:48:06;;;;;;;14.48;6.75;;;691.80;1382.40;;;;;;5109224;28;20019;-78
2021/08/17 02:50:32;;;;;;;10.30;6.57;;;691.90;1382.40;;;;;;5109441;28;20024;-80
2021/08/17 02:52:58;;;;;;;15.95;7.00;;;691.50;1408.00;;;;;;5093954;28;20023;-78
2021/08/17 02:55:24;;;;;;;14.57;7.25;;;691.70;1408.00;;;;;;5110648;28;20477;-78
2021/08/17 02:57:56;;;;;;;11.82;7.80;;;691.80;1408.00;;;;;;5110560;28;20023;-77
2021/08/17 03:00:21;;;;;;;13.43;7.55;;;691.50;1433.60;;;;;;5108302;28;20097;-77
2021/08/17 03:02:48;;;;;;;10.10;7.07;;;691.80;1408.00;;;;;;5110474;28;20047;-78
2021/08/17 03:05:14;;;;;;;11.88;7.38;;;691.90;1408.00;;;;;;5096285;28;20042;-78
2021/08/17 03:07:54;;;;;;;18.85;8.18;;;692.00;1408.00;;;;;;5109330;28;20016;-78
2021/08/17 03:10:22;;;;;;;12.68;6.65;;;691.30;1459.20;;;;;;5105517;28;20461;-78
2021/08/17 03:12:48;;;;;;;16.45;7.65;;;691.40;1459.20;;;;;;5112346;28;20027;-77
2021/08/17 03:15:14;;;;;;;13.93;7.45;;;666.50;1459.20;;;;;;5091434;28;20024;-79
2021/08/17 03:17:40;;;;;;;11.13;7.55;;;691.20;1459.20;;;;;;5109644;28;20020;-80
2021/08/17 03:20:11;;;;;;;14.60;8.07;;;691.50;1408.00;;;;;;5110257;28;20508;-80
2021/08/17 03:22:37;;;;;;;14.18;7.60;;;691.70;1408.00;;;;;;5109870;28;20023;-79
2021/08/17 03:25:06;;;;;;;14.90;7.05;;;691.70;1408.00;;;;;;5108095;28;20040;-80
2021/08/17 03:27:31;;;;;;;12.68;7.57;;;691.80;1408.00;;;;;;5109242;28;20012;-80
2021/08/17 03:29:57;;;;;;;11.43;6.95;;;691.80;1433.60;;;;;;5094937;28;20035;-79
2021/08/17 03:32:24;;;;;;;14.02;6.70;;;691.80;1433.60;;;;;;5110288;28;20019;-77
2021/08/17 03:34:51;;;;;;;13.15;8.15;;;691.80;1433.60;;;;;;5089161;28;20480;-80
2021/08/17 03:37:16;;;;;;;11.50;7.68;;;691.80;1459.20;;;;;;5091233;28;20020;-77
2021/08/17 03:39:42;;;;;;;15.55;7.85;;;691.80;1459.20;;;;;;5109720;28;20023;-79
2021/08/17 03:42:08;;;;;;;13.77;7.32;;;691.70;1459.20;;;;;;5108413;28;20377;-78
2021/08/17 03:44:34;;;;;;;14.27;8.63;;;691.60;1510.40;;;;;;5108983;28;21374;-79
2021/08/17 03:47:00;;;;;;;15.48;7.90;;;691.60;1536.00;;;;;;5092545;28;20023;-80
2021/08/17 03:49:25;;;;;;;14.68;8.07;;;691.40;1510.40;;;;;;5109941;28;20020;-79
2021/08/17 03:51:51;;;;;;;19.55;8.75;;;691.40;1510.40;;;;;;5107705;28;20030;-80
2021/08/17 03:54:17;;;;;;;12.48;7.82;;;691.20;1536.00;;;;;;5090235;28;20016;-79
2021/08/17 03:56:43;;;;;;;14.48;7.90;;;666.50;1536.00;;;;;;5109203;28;20051;-76
2021/08/17 03:59:08;;;;;;;23.25;9.18;;;666.20;1587.20;;;;;;5109805;28;20020;-77
2021/08/17 04:01:34;;;;;;;17.35;8.13;;;666.00;1587.20;;;;;;5109935;28;20419;-79
2021/08/17 04:04:00;;;;;;;21.08;7.95;;;665.70;1638.40;;;;;;5104339;28;20486;-77
2021/08/17 04:06:25;;;;;;;18.50;7.15;;;665.70;1664.00;;;;;;5108733;28;20475;-76
2021/08/17 04:08:52;;;;;;;19.90;8.32;;;665.60;1689.60;;;;;;5113749;28;20072;-76
2021/08/17 04:11:18;;;;;;;21.02;8.10;;;665.70;1689.60;;;;;;5095074;28;20032;-78
2021/08/17 04:13:44;;;;;;;18.75;8.43;;;665.70;1715.20;;;;;;5106898;28;20023;-77
2021/08/17 04:16:10;;;;;;;13.00;7.22;;;665.70;1740.80;;;;;;5110225;28;20558;-77
2021/08/17 04:18:36;;;;;;;26.52;8.73;;;665.60;1766.40;;;;;;5110207;28;20027;-79
2021/08/17 04:21:01;;;;;;;24.00;9.00;;;665.60;1766.40;;;;;;5110432;28;20019;-77
2021/08/17 04:23:27;;;;;;;30.88;8.57;;;665.80;1766.40;;;;;;5110534;28;20496;-78
2021/08/17 04:25:53;;;;;;;33.95;10.52;;;665.80;1792.00;;;;;;5129957;27;20607;-77
2021/08/17 04:28:19;;;;;;;23.77;8.18;;;665.70;1843.20;;;;;;5112414;28;20091;-79
2021/08/17 04:30:45;;;;;;;22.08;7.68;;;665.70;1843.20;;;;;;5127325;27;20102;-77
2021/08/17 04:33:10;;;;;;;16.20;6.25;;;640.90;1868.80;;;;;;5112527;28;20114;-77
2021/08/17 04:35:36;;;;;;;20.67;5.68;;;640.50;1920.00;;;;;;5130760;27;20023;-83
2021/08/17 04:38:03;;;;;;;16.33;5.82;;;640.50;1920.00;;;;;;5134072;28;20019;-85
2021/08/17 04:40:29;;;;;;;12.45;6.75;;;640.50;1945.60;;;;;;5133988;28;20019;-82
2021/08/17 04:42:55;;;;;;;19.75;5.75;;;640.60;1920.00;;;;;;5131703;28;20361;-77
2021/08/17 04:45:20;;;;;;;21.50;6.50;;;640.80;1920.00;;;;;;5133511;28;20469;-81
2021/08/17 04:47:48;;;;;;;11.05;5.28;;;640.80;1920.00;;;;;;5134337;28;20016;-79
2021/08/17 04:50:15;;;;;;;13.65;5.20;;;640.50;1971.20;;;;;;5115657;28;20035;-87
2021/08/17 04:52:40;;;;;;;12.40;4.18;;;640.50;1971.20;;;;;;5122513;28;20016;-80
2021/08/17 04:55:07;;;;;;;8.40;4.40;;;640.60;1971.20;;;;;;5131205;28;20102;-83
2021/08/17 04:58:05;;;;;;;8.25;3.63;;;640.50;1996.80;;;;;;5134113;28;20481;-80
2021/08/17 05:00:32;;;;;;;11.05;3.95;;;640.20;2022.40;;;;;;5132998;28;20066;-79
2021/08/17 05:02:58;;;;;;;10.82;3.83;;;640.20;2048.00;;;;;;5133745;28;20030;-79
2021/08/17 05:05:24;;;;;;;12.48;3.50;;;640.20;2048.00;;;;;;5115151;27;20050;-77
2021/08/17 05:07:51;;;;;;;8.93;3.25;;;640.00;2073.60;;;;;;5119562;27;20023;-81
2021/08/17 05:10:20;;;;;;;10.25;3.45;;;615.20;2073.60;;;;;;5119354;27;20468;-77
2021/08/17 05:12:47;;;;;;;14.30;4.47;;;615.20;2099.20;;;;;;5137851;27;20019;-77
2021/08/17 05:15:13;;;;;;;6.50;3.08;;;615.10;2099.20;;;;;;5137566;27;20019;-83
2021/08/17 05:17:39;;;;;;;7.90;3.00;;;;;;;;;;5128342;27;20019;-79
2021/08/17 05:20:08;;;;;;;13.88;3.45;;;615.10;2099.20;;;;;;5119418;27;20062;-79
2021/08/17 05:22:33;;;;;;;8.88;3.40;;;615.20;2099.20;;;;;;5119253;27;20111;-81
2021/08/17 05:24:59;;;;;;;16.98;3.55;;;615.20;2124.80;;;;;;5117929;27;20088;-76
2021/08/17 05:27:25;;;;;;;10.32;3.17;;;615.30;2099.20;;;;;;5137430;27;20023;-81
2021/08/17 05:29:52;;;;;;;6.05;3.03;;;615.30;2099.20;;;;;;5137465;27;20361;-78
2021/08/17 05:32:19;;;;;;;8.75;3.17;;;615.30;2099.20;;;;;;5121820;27;20161;-78
2021/08/17 05:34:46;;;;;;;8.18;2.97;;;615.20;2099.20;;;;;;5158055;27;20041;-78
2021/08/17 05:37:14;;;;;;;14.48;3.42;;;615.20;2099.20;;;;;;5139702;27;20022;-78
2021/08/17 05:39:41;;;;;;;8.98;2.80;;;640.30;2073.60;;;;;;5158057;27;20011;-79
2021/08/17 05:42:08;;;;;;;6.70;2.60;;;640.00;2073.60;;;;;;5139522;27;20018;-80
2021/08/17 05:44:38;;;;;;;13.00;2.80;;;640.00;2048.00;;;;;;5157577;27;20383;-78
2021/08/17 05:47:04;;;;;;;6.82;2.53;;;640.20;2048.00;;;;;;5139112;27;20475;-78
2021/08/17 05:49:30;;;;;;;11.20;2.92;;;640.10;2048.00;;;;;;5157748;27;20040;-81
2021/08/17 05:51:56;;;;;;;6.45;2.40;;;640.20;2048.00;;;;;;5158074;27;20395;-79
2021/08/17 05:54:23;;;;;;;6.95;2.75;;;640.20;2022.40;;;;;;5157613;27;20019;-77
2021/08/17 05:56:52;;;;;;;10.30;3.00;;;640.10;2022.40;;;;;;5157224;27;20024;-77
2021/08/17 05:59:17;;;;;;;8.77;2.75;;;640.10;2022.40;;;;;;5157529;27;20047;-81
2021/08/17 06:01:43;;;;;;;8.00;3.17;;;640.00;2022.40;;;;;;5157239;27;20533;-79
2021/08/17 06:04:09;;;;;;;8.73;2.85;;;640.00;2022.40;;;;;;5157356;27;20026;-79
2021/08/17 06:06:34;;;;;;;8.63;2.90;;;640.20;1996.80;;;;;;5157352;27;20039;-79
2021/08/17 06:09:00;;;;;;;10.55;3.30;;;640.20;1971.20;;;;;;5138571;27;20019;-78
2021/08/17 06:11:26;;;;;;;6.25;3.40;;;640.10;1971.20;;;;;;5157373;27;20026;-77
2021/08/17 06:13:53;;;;;;;8.85;2.75;;;615.30;1971.20;;;;;;5138626;27;20019;-78
2021/08/17 06:16:19;;;;;;;6.07;2.30;;;615.30;1971.20;;;;;;5138826;27;20019;-78
2021/08/17 06:18:44;;;;;;;8.23;2.80;;;615.00;1996.80;;;;;;5137639;27;20019;-77
2021/08/17 06:21:10;;;;;;;7.72;2.72;;;615.20;1996.80;;;;;;5157322;27;20444;-79
2021/08/17 06:23:36;;;;;;;6.93;3.00;;;615.00;1971.20;;;;;;5157166;27;20029;-77
2021/08/17 06:26:01;;;;;;;7.53;3.55;;;614.90;1996.80;;;;;;5157145;27;20035;-78
2021/08/17 06:28:27;;;;;;;16.42;3.78;;;615.10;1971.20;;;;;;5157349;27;20023;-81
2021/08/17 06:30:54;;;;;;;10.38;3.00;;;615.20;1971.20;;;;;;5157353;27;20063;-78
2021/08/17 06:33:20;;;;;;;6.28;2.55;;;615.20;1945.60;;;;;;5157103;27;20549;-80
2021/08/17 06:35:46;;;;;;;6.82;3.05;;;640.00;1945.60;;;;;;5138296;27;20031;-78
2021/08/17 06:38:12;;;;;;;10.38;3.08;;;640.20;1920.00;;;;;;5138451;27;20029;-82
2021/08/17 06:40:38;;;;;;;14.20;3.83;;;640.30;1920.00;;;;;;5138623;27;20054;-77
2021/08/17 06:43:04;;;;;;;3.63;2.22;;;640.60;1894.40;;;;;;5138361;27;20030;-77
2021/08/17 06:45:29;;;;;;;10.02;3.28;;;640.70;1868.80;;;;;;5156827;27;20090;-86
2021/08/17 06:47:57;;;;;;;9.55;3.08;;;640.70;1843.20;;;;;;5156864;27;20046;-78
2021/08/17 06:50:23;;;;;;;6.43;2.45;;;640.60;1843.20;;;;;;5156946;27;20018;-80
2021/08/17 06:52:50;;;;;;;11.68;3.10;;;640.60;1843.20;;;;;;5156963;27;20549;-80
2021/08/17 06:55:16;;;;;;;13.05;3.60;;;640.70;1843.20;;;;;;5155571;27;20027;-78
2021/08/17 06:57:42;;;;;;;8.43;3.75;;;640.70;1843.20;;;;;;5156001;27;20057;-82
2021/08/17 07:00:10;;;;;;;10.75;2.83;;;640.80;1817.60;;;;;;5155367;27;20038;-81
2021/08/17 07:02:36;;;;;;;7.05;3.53;;;640.80;1817.60;;;;;;5137215;27;20083;-77
2021/08/17 07:05:03;;;;;;;6.57;2.88;;;665.70;1843.20;;;;;;5155132;27;20038;-82
2021/08/17 07:07:29;;;;;;;6.97;3.30;;;665.70;1817.60;;;;;;5155859;27;20494;-76
2021/08/17 07:09:55;;;;;;;13.48;3.22;;;665.70;1817.60;;;;;;5156241;27;20113;-78
2021/08/17 07:12:20;;;;;;;10.20;3.55;;;665.90;1792.00;;;;;;5156401;27;20098;-79
2021/08/17 07:14:46;;;;;;;8.75;3.70;;;665.70;1792.00;;;;;;5156345;27;20524;-77
2021/08/17 07:17:12;;;;;;;8.32;3.85;;;640.60;1817.60;;;;;;5136817;27;20121;-79
2021/08/17 07:19:38;;;;;;;10.88;4.00;;;640.60;1792.00;;;;;;5136924;27;20018;-82
2021/08/17 07:22:03;;;;;;;32.55;9.13;;;640.60;1792.00;;;;;;5155535;27;20387;-77
2021/08/17 07:24:29;;;;;;;9.93;3.95;;;640.80;1792.00;;;;;;5155898;27;20074;-82
2021/08/17 07:26:56;;;;;;;13.20;4.20;;;640.70;1792.00;;;;;;5156200;27;20051;-81
2021/08/17 07:29:22;;;;;;;15.25;4.82;;;640.70;1766.40;;;;;;5134409;27;20043;-79
2021/08/17 07:31:47;;;;;;;11.75;5.22;;;640.70;1766.40;;;;;;5154635;27;20031;-78
2021/08/17 07:34:13;;;;;;;8.93;4.13;;;665.60;1792.00;;;;;;5136042;27;20483;-81
2021/08/17 07:36:39;;;;;;;10.35;3.58;;;640.80;1766.40;;;;;;5135593;27;20031;-76
2021/08/17 07:39:07;;;;;;;11.35;4.30;;;640.70;1766.40;;;;;;5155563;27;20243;-79
2021/08/17 07:41:34;;;;;;;10.50;3.83;;;640.70;1766.40;;;;;;5155049;27;20386;-79
2021/08/17 07:44:00;;;;;;;13.00;4.47;;;640.90;1740.80;;;;;;5155002;27;20058;-83
2021/08/17 07:46:26;;;;;;;8.73;3.58;;;640.60;1792.00;;;;;;5135939;27;20042;-83
2021/08/17 07:48:52;;;;;;;10.95;4.22;;;640.60;1740.80;;;;;;5136470;27;20034;-88
2021/08/17 07:51:18;;;;;;;6.88;3.92;;;640.60;1740.80;;;;;;5154765;27;20023;-81
2021/08/17 07:53:44;;;;;;;13.65;4.85;;;640.60;1766.40;;;;;;5155346;27;20073;-80
2021/08/17 07:56:10;;;;;;;8.02;3.92;;;640.50;1740.80;;;;;;5154901;27;20478;-80
2021/08/17 07:58:36;;;;;;;8.40;4.88;;;640.50;1740.80;;;;;;5154118;27;20069;-79
2021/08/17 08:01:05;;;;;;;11.32;3.95;;;640.90;1715.20;;;;;;5154519;27;20062;-79
2021/08/17 08:03:33;;;;;;;13.70;5.35;;;665.90;1689.60;;;;;;5154724;27;20019;-79
2021/08/17 08:05:59;;;;;;;10.55;3.75;;;666.00;1689.60;;;;;;5154770;27;20397;-82
2021/08/17 08:08:25;;;;;;;15.18;5.85;;;665.90;1664.00;;;;;;5155276;27;20022;-80
2021/08/17 08:10:51;;;;;;;8.60;4.05;;;691.20;1664.00;;;;;;5154934;27;20019;-79
2021/08/17 08:13:17;;;;;;;8.55;4.30;;;666.20;1638.40;;;;;;5154230;27;20034;-76
2021/08/17 08:15:42;;;;;;;12.30;5.18;;;666.50;1638.40;;;;;;5154658;27;20079;-78
2021/08/17 08:18:08;;;;;;;14.73;4.78;;;691.30;1612.80;;;;;;5154492;27;20018;-79
2021/08/17 08:20:35;;;;;;;9.93;4.80;;;691.60;1587.20;;;;;;5154502;27;20022;-75
2021/08/17 08:23:00;;;;;;;8.40;4.10;;;691.60;1587.20;;;;;;5154395;27;20071;-74
2021/08/17 08:25:26;;;;;;;16.88;4.78;;;691.70;1587.20;;;;;;5145439;27;20519;-74
2021/08/17 08:27:52;;;;;;;10.70;4.13;;;691.70;1587.20;;;;;;5152943;27;20513;-82
2021/08/17 08:30:18;;;;;;;6.88;4.15;;;691.80;1561.60;;;;;;5145042;27;20073;-80
2021/08/17 08:32:44;;;;;;;9.73;4.32;;;691.80;1536.00;;;;;;5150585;27;20067;-79
2021/08/17 08:35:13;;;;;;;18.40;5.13;;;691.90;1536.00;;;;;;5153778;27;20075;-72
2021/08/17 08:37:40;;;;;;;10.68;4.55;;;692.10;1510.40;;;;;;5154720;27;20027;-75
2021/08/17 08:40:07;;;;;;;11.10;4.57;;;691.90;1510.40;;;;;;5151048;27;20110;-74
2021/08/17 08:42:33;;;;;;;7.40;4.47;;;692.00;1510.40;;;;;;5153851;27;20490;-78
2021/08/17 08:44:59;;;;;;;6.57;3.38;;;692.00;1510.40;;;;;;5154483;27;20035;-84
2021/08/17 08:47:24;;;;;;;6.78;3.33;;;692.10;1510.40;;;;;;5143501;27;20027;-75
2021/08/17 08:49:52;;;;;;;6.43;3.95;;;692.10;1510.40;;;;;;5151073;27;20018;-78
2021/08/17 08:52:19;;;;;;;8.45;3.70;;;716.80;1536.00;;;;;;5136650;27;20062;-75
2021/08/17 08:54:45;;;;;;;10.45;4.13;;;716.90;1484.80;;;;;;5147892;27;20033;-77
2021/08/17 08:57:11;;;;;;;6.47;3.60;;;717.00;1459.20;;;;;;5118868;27;20038;-78
2021/08/17 08:59:37;;;;;;;9.05;3.83;;;716.90;1484.80;;;;;;5146323;27;20023;-77
2021/08/17 09:02:05;;;;;;;9.43;4.40;;;717.00;1484.80;;;;;;5153928;27;20027;-80
2021/08/17 09:04:31;;;;;;;7.72;3.80;;;717.10;1484.80;;;;;;5153632;27;20074;-77
2021/08/17 09:06:57;;;;;;;12.48;6.85;;;717.10;1459.20;;;;;;5150266;27;20030;-77
2021/08/17 09:09:23;;;;;;;20.83;5.15;;;717.30;1484.80;;;;;;5150247;27;20114;-78
2021/08/17 09:11:54;;;;;;;15.82;4.55;;;717.30;1408.00;;;;;;5145813;27;20023;-75
2021/08/17 09:14:33;;;;;;;10.32;4.30;;;717.40;1433.60;;;;;;5140784;27;20011;-76
2021/08/17 09:17:04;;;;;;;12.80;3.80;;;717.60;1459.20;;;;;;5142851;27;20095;-78
2021/08/17 09:19:36;;;;;;;7.88;4.15;;;717.50;1433.60;;;;;;5119354;28;20049;-75
2021/08/17 09:22:19;;;;;;;11.95;5.85;;;717.60;1433.60;;;;;;5136046;27;20075;-77
2021/08/17 09:24:47;;;;;;;13.77;4.13;;;717.70;1408.00;;;;;;5154090;27;20039;-80
2021/08/17 09:27:15;;;;;;;14.20;8.23;;;717.70;1408.00;;;;;;5131248;27;20123;-78
2021/08/17 09:29:44;;;;;;;13.13;4.18;;;742.40;1433.60;;;;;;5132826;27;20476;-77
2021/08/17 09:32:13;;;;;;;23.55;7.90;;;742.40;1459.20;;;;;;5152475;27;20106;-79
2021/08/17 09:34:40;;;;;;;16.00;6.93;;;717.70;1382.40;;;;;;5147786;27;20071;-81
2021/08/17 09:37:10;;;;;;;12.25;3.55;;;742.40;1433.60;;;;;;5121946;28;20088;-76
2021/08/17 09:39:40;;;;;;;13.18;3.78;;;742.40;1408.00;;;;;;5137991;27;20018;-76
2021/08/17 09:42:27;;;;;;;6.10;3.60;;;742.40;1408.00;;;;;;5153305;27;20033;-77
2021/08/17 09:45:08;;;;;;;15.75;3.88;;;742.40;1433.60;;;;;;5154016;27;20019;-81
2021/08/17 09:47:36;;;;;;;9.98;3.92;;;742.70;1408.00;;;;;;5154097;27;20023;-79
2021/08/17 09:50:21;;;;;;;12.68;4.13;;;742.50;1382.40;;;;;;5145000;27;20034;-76
2021/08/17 09:53:04;;;;;;;9.63;3.30;;;742.70;1382.40;;;;;;5135641;27;20027;-80
2021/08/17 09:55:37;;;;;;;10.10;3.35;;;742.80;1382.40;;;;;;5155296;27;20031;-78
2021/08/17 09:58:26;;;;;;;8.05;3.95;;;743.10;1356.80;;;;;;5154502;27;20054;-78
2021/08/17 10:00:54;;;;;;;12.10;3.83;;;743.10;1356.80;;;;;;5131706;27;20106;-79
2021/08/17 10:03:21;;;;;;;11.25;4.88;;;743.00;1356.80;;;;;;5146029;27;20023;-75
2021/08/17 10:05:47;;;;;;;10.40;5.32;;;743.10;1382.40;;;;;;5150739;27;20491;-79
2021/08/17 10:08:16;;;;;;;12.93;5.28;;;743.10;1356.80;;;;;;5137811;27;20023;-77
2021/08/17 10:10:47;;;;;;;9.45;4.07;;;743.30;1356.80;;;;;;5123088;27;20130;-77
2021/08/17 10:13:15;;;;;;;10.60;3.88;;;768.00;1356.80;;;;;;5126672;27;20460;-80
2021/08/17 10:15:45;;;;;;;13.98;3.53;;;768.30;1305.60;;;;;;5137398;27;20019;-78
2021/08/17 10:18:14;;;;;;;9.82;3.88;;;768.40;1254.40;;;;;;5137938;27;20121;-80
2021/08/17 10:20:44;;;;;;;12.25;4.43;;;768.60;1280.00;;;;;;5138897;27;20026;-81
2021/08/17 10:23:16;;;;;;;10.65;4.15;;;768.90;1280.00;;;;;;5154653;27;20071;-78
2021/08/17 10:25:47;;;;;;;12.82;3.80;;;768.80;1280.00;;;;;;5135889;27;20047;-79
2021/08/17 10:28:34;;;;;;;10.93;3.75;;;793.60;1305.60;;;;;;5157340;27;20036;-80
2021/08/17 10:31:12;;;;;;;13.60;3.80;;;793.70;1280.00;;;;;;5157274;27;20055;-81
2021/08/17 10:33:43;;;;;;;17.98;4.10;;;793.70;1280.00;;;;;;5156735;27;20027;-76
2021/08/17 10:36:10;;;;;;;8.95;3.45;;;793.90;1331.20;;;;;;5156968;27;20029;-78
2021/08/17 10:38:42;;;;;;;8.45;3.75;;;794.00;1280.00;;;;;;5148829;27;20027;-75
2021/08/17 10:41:09;;;;;;;9.43;3.35;;;794.20;1331.20;;;;;;5151208;27;20014;-76
2021/08/17 10:43:34;;;;;;;15.43;3.85;;;794.10;1280.00;;;;;;5139768;27;20018;-81
2021/08/17 10:46:09;;;;;;;6.07;3.03;;;794.10;1305.60;;;;;;5141720;27;20488;-76
2021/08/17 10:48:50;;;;;;;15.23;3.42;;;794.00;1305.60;;;;;;5120749;27;20027;-77
2021/08/17 10:51:18;;;;;;;12.15;3.70;;;794.20;1305.60;;;;;;5142801;27;20023;-79
2021/08/17 10:53:44;;;;;;;6.97;3.90;;;794.40;1254.40;;;;;;5141614;27;20063;-75
2021/08/17 10:56:12;;;;;;;12.15;3.85;;;819.30;1254.40;;;;;;5155202;27;20087;-82
2021/08/17 10:58:42;;;;;;;5.63;3.05;;;819.30;1280.00;;;;;;5156101;27;20019;-81
2021/08/17 11:01:08;;;;;;;9.68;4.13;;;819.20;1254.40;;;;;;5156496;27;20018;-83
2021/08/17 11:03:46;;;;;;;8.68;3.30;;;794.50;1280.00;;;;;;5155892;27;20050;-76
2021/08/17 11:06:38;;;;;;;10.10;3.83;;;794.40;1280.00;;;;;;5137939;27;20027;-80
2021/08/17 11:09:06;;;;;;;16.85;5.35;;;794.50;1254.40;;;;;;5138224;27;20015;-84
2021/08/17 11:11:32;;;;;;;13.18;4.18;;;794.40;1280.00;;;;;;5147119;27;20049;-82
2021/08/17 11:14:15;;;;;;;6.28;3.60;;;819.30;1254.40;;;;;;5140483;27;20490;-82
2021/08/17 11:16:44;;;;;;;9.38;3.13;;;844.80;1228.80;;;;;;5125205;27;20026;-86
2021/08/17 11:19:11;;;;;;;7.53;3.60;;;845.20;1203.20;;;;;;5135725;27;20164;-82
2021/08/17 11:21:46;;;;;;;15.80;3.38;;;844.90;1228.80;;;;;;5152378;27;20114;-88
2021/08/17 11:24:14;;;;;;;10.38;3.20;;;844.90;1254.40;;;;;;5135741;27;20520;-76
2021/08/17 11:26:46;;;;;;;11.45;3.33;;;819.60;1280.00;;;;;;5122965;27;20190;-83
2021/08/17 11:29:24;;;;;;;14.93;3.85;;;844.90;1254.40;;;;;;5132018;27;20043;-86
2021/08/17 11:31:51;;;;;;;6.25;3.17;;;820.00;1254.40;;;;;;5140174;27;20506;-80
2021/08/17 11:34:23;;;;;;;7.90;3.40;;;844.90;1254.40;;;;;;5157784;27;20129;-90
2021/08/17 11:36:54;;;;;;;11.27;3.53;;;819.70;1280.00;;;;;;5145434;27;20011;-88
2021/08/17 11:39:43;;;;;;;8.98;3.38;;;844.80;1254.40;;;;;;5145990;27;20027;-80
2021/08/17 11:42:20;;;;;;;7.88;3.65;;;845.10;1228.80;;;;;;5142738;27;20472;-90
2021/08/17 11:44:48;;;;;;;17.20;4.15;;;820.10;1228.80;;;;;;5149361;27;20027;-86
2021/08/17 11:47:18;;;;;;;20.98;5.90;;;819.80;1228.80;;;;;;5137016;27;20039;-94
2021/08/17 11:49:46;;;;;;;10.60;5.15;;;819.60;1280.00;;;;;;5137188;27;20015;-94
2021/08/17 11:52:20;;;;;;;12.68;3.40;;;844.90;1228.80;;;;;;5137513;27;20019;-86
2021/08/17 11:54:48;;;;;;;8.57;3.67;;;819.80;1228.80;;;;;;5148450;27;20043;-81
2021/08/17 11:57:20;;;;;;;11.55;3.50;;;794.50;1280.00;;;;;;5154986;27;20037;-82
2021/08/17 11:59:47;;;;;;;13.77;5.13;;;794.20;1280.00;;;;;;5151901;27;20043;-83
2021/08/17 12:02:27;;;;;;;8.15;3.13;;;794.50;1280.00;;;;;;5154382;27;20052;-80
2021/08/17 12:04:57;;;;;;;6.80;3.40;;;793.80;1305.60;;;;;;5152442;27;20027;-91
2021/08/17 12:07:24;;;;;;;21.73;3.90;;;794.30;1305.60;;;;;;5135312;27;20087;-92
2021/08/17 12:09:49;;;;;;;14.38;3.80;;;794.00;1280.00;;;;;;5154085;27;20491;-83
2021/08/17 12:12:39;;;;;;;11.57;3.65;;;793.70;1305.60;;;;;;5154520;27;20023;-76
2021/08/17 12:15:09;;;;;;;16.70;3.70;;;793.70;1305.60;;;;;;5135220;27;20022;-81